createdAt,value
2022-08-20T00:00:12.428Z,24.8
2022-08-20T00:01:14.906Z,24.6
2022-08-20T00:02:17.463Z,24.6
2022-08-20T00:03:19.960Z,24.7
2022-08-20T00:04:25.946Z,24.7
2022-08-20T00:05:29.438Z,24.8
2022-08-20T00:06:31.900Z,24.8
2022-08-20T00:07:33.827Z,24.7
2022-08-20T00:08:36.302Z,24.7
2022-08-20T00:09:38.782Z,24.7
2022-08-20T00:10:41.716Z,24.5
2022-08-20T00:11:49.563Z,24.8
2022-08-20T00:12:52.044Z,24.6
2022-08-20T00:13:54.537Z,24.7
2022-08-20T00:14:56.167Z,24.8
2022-08-20T00:15:58.643Z,24.6
2022-08-20T00:17:01.045Z,24.8
2022-08-20T00:18:17.937Z,24.6
2022-08-20T00:19:19.871Z,24.8
2022-08-20T00:20:22.349Z,24.7
2022-08-20T00:21:25.943Z,24.7
2022-08-20T00:22:33.825Z,24.6
2022-08-20T00:23:36.034Z,24.9
2022-08-20T00:24:38.515Z,24.6
2022-08-20T00:25:40.986Z,24.8
2022-08-20T00:27:48.473Z,24.8
2022-08-20T00:28:50.880Z,24.7
2022-08-20T00:29:53.343Z,24.9
2022-08-20T00:30:55.534Z,24.8
2022-08-20T00:31:57.733Z,24.8
2022-08-20T00:32:59.666Z,24.8
2022-08-20T00:34:02.144Z,24.7
2022-08-20T00:35:04.639Z,24.8
2022-08-20T00:36:06.533Z,24.8
2022-08-20T00:37:09.005Z,24.9
2022-08-20T00:38:11.478Z,24.7
2022-08-20T00:39:13.968Z,24.8
2022-08-20T00:41:21.442Z,24.8
2022-08-20T00:42:23.640Z,24.8
2022-08-20T00:43:25.859Z,24.8
2022-08-20T00:44:28.065Z,24.8
2022-08-20T00:45:29.978Z,24.7
2022-08-20T00:46:32.725Z,24.8
2022-08-20T00:47:35.206Z,24.9
2022-08-20T00:48:37.802Z,24.8
2022-08-20T00:49:40.280Z,24.9
2022-08-20T00:50:42.760Z,24.8
2022-08-20T00:51:45.227Z,24.8
2022-08-20T00:53:52.701Z,24.9
2022-08-20T00:54:55.192Z,25
2022-08-20T00:55:57.108Z,24.9
2022-08-20T00:56:59.581Z,24.8
2022-08-20T00:58:02.842Z,24.8
2022-08-20T00:59:06.744Z,24.9
2022-08-20T01:00:09.062Z,24.8
2022-08-20T01:01:10.969Z,24.9
2022-08-20T01:02:13.638Z,24.9
2022-08-20T01:03:16.087Z,24.8
2022-08-20T01:04:18.572Z,24.9
2022-08-20T01:06:26.106Z,24.9
2022-08-20T01:07:28.328Z,24.8
2022-08-20T01:08:30.794Z,24.9
2022-08-20T01:10:37.702Z,24.9
2022-08-20T01:11:40.200Z,24.8
2022-08-20T01:12:42.375Z,24.8
2022-08-20T01:13:44.852Z,24.9
2022-08-20T01:14:47.403Z,24.9
2022-08-20T01:15:49.605Z,24.9
2022-08-20T01:16:51.799Z,24.9
2022-08-20T01:17:55.265Z,24.8
2022-08-20T01:18:58.979Z,24.8
2022-08-20T01:20:01.463Z,24.9
2022-08-20T01:21:03.660Z,24.8
2022-08-20T01:22:05.861Z,24.8
2022-08-20T01:23:07.791Z,25
2022-08-20T01:24:09.982Z,24.8
2022-08-20T01:25:13.343Z,25
2022-08-20T01:26:15.263Z,25
2022-08-20T01:27:17.176Z,24.8
2022-08-20T01:28:20.321Z,24.9
2022-08-20T01:29:22.784Z,24.9
2022-08-20T01:30:24.689Z,24.9
2022-08-20T01:31:26.882Z,25
2022-08-20T01:32:28.829Z,24.9
2022-08-20T01:33:31.051Z,24.8
2022-08-20T01:34:33.524Z,24.9
2022-08-20T01:35:35.715Z,25
2022-08-20T01:36:38.490Z,24.8
2022-08-20T01:37:45.096Z,24.9
2022-08-20T01:39:52.392Z,24.9
2022-08-20T01:40:54.904Z,24.8
2022-08-20T01:41:57.097Z,24.9
2022-08-20T01:43:00.388Z,25
2022-08-20T01:45:10.495Z,24.8
2022-08-20T01:46:13.016Z,24.9
2022-08-20T01:47:16.510Z,24.9
2022-08-20T01:48:19.588Z,24.9
2022-08-20T01:49:24.094Z,24.8
2022-08-20T01:50:26.575Z,24.8
2022-08-20T01:51:29.060Z,25
2022-08-20T01:52:31.312Z,24.9
2022-08-20T01:53:33.538Z,24.9
2022-08-20T01:54:35.738Z,24.9
2022-08-20T01:55:37.934Z,24.9
2022-08-20T01:56:40.411Z,25
2022-08-20T01:57:42.888Z,25
2022-08-20T01:58:45.375Z,24.9
2022-08-20T01:59:47.854Z,24.8
2022-08-20T02:00:50.334Z,24.8
2022-08-20T02:01:52.937Z,25
2022-08-20T02:02:56.516Z,25
2022-08-20T02:03:59.167Z,24.9
2022-08-20T02:05:01.112Z,24.9
2022-08-20T02:06:03.294Z,24.9
2022-08-20T02:07:05.766Z,24.9
2022-08-20T02:08:08.601Z,24.9
2022-08-20T02:10:16.087Z,24.8
2022-08-20T02:11:18.581Z,24.9
2022-08-20T02:12:20.775Z,24.9
2022-08-20T02:13:23.257Z,25
2022-08-20T02:14:25.730Z,25
2022-08-20T02:16:33.204Z,25
2022-08-20T02:17:35.682Z,25.1
2022-08-20T02:18:38.160Z,25
2022-08-20T02:19:40.646Z,24.9
2022-08-20T02:20:43.117Z,25
2022-08-20T02:21:45.297Z,24.9
2022-08-20T02:23:52.776Z,25
2022-08-20T02:24:54.738Z,24.9
2022-08-20T02:25:56.406Z,24.9
2022-08-20T02:26:58.336Z,24.9
2022-08-20T02:28:00.804Z,24.9
2022-08-20T02:29:03.298Z,24.9
2022-08-20T02:30:06.962Z,24.8
2022-08-20T02:31:09.439Z,24.9
2022-08-20T02:33:16.641Z,25
2022-08-20T02:35:24.899Z,25
2022-08-20T02:36:27.534Z,25.1
2022-08-20T02:37:30.012Z,25
2022-08-20T02:38:32.276Z,25
2022-08-20T02:39:34.864Z,25
2022-08-20T02:40:37.660Z,24.9
2022-08-20T02:41:40.334Z,24.9
2022-08-20T02:42:43.129Z,25
2022-08-20T02:43:46.637Z,25
2022-08-20T02:44:49.115Z,25
2022-08-20T02:45:51.303Z,25
2022-08-20T02:46:53.512Z,24.9
2022-08-20T02:47:56.344Z,24.9
2022-08-20T02:49:00.220Z,25
2022-08-20T02:50:02.144Z,25
2022-08-20T02:51:07.634Z,25
2022-08-20T02:52:09.834Z,25
2022-08-20T02:53:12.315Z,24.9
2022-08-20T02:54:14.515Z,25
2022-08-20T02:56:21.973Z,24.9
2022-08-20T02:57:24.455Z,25.1
2022-08-20T02:58:26.642Z,25
2022-08-20T02:59:29.124Z,25
2022-08-20T03:01:36.734Z,24.9
2022-08-20T03:02:39.533Z,25.1
2022-08-20T03:03:41.731Z,25
2022-08-20T03:04:44.210Z,24.8
2022-08-20T03:05:46.678Z,25
2022-08-20T03:07:53.947Z,25.2
2022-08-20T03:08:56.921Z,24.8
2022-08-20T03:09:59.112Z,24.9
2022-08-20T03:11:01.612Z,24.9
2022-08-20T03:12:04.076Z,24.8
2022-08-20T03:13:06.554Z,24.9
2022-08-20T03:14:08.479Z,24.8
2022-08-20T03:16:15.945Z,24.8
2022-08-20T03:17:18.427Z,24.9
2022-08-20T03:18:20.625Z,24.9
2022-08-20T03:19:22.825Z,24.8
2022-08-20T03:20:25.477Z,24.8
2022-08-20T03:21:28.118Z,24.8
2022-08-20T03:22:30.595Z,24.8
2022-08-20T03:23:35.360Z,24.7
2022-08-20T03:24:42.278Z,24.8
2022-08-20T03:25:44.484Z,24.8
2022-08-20T03:26:46.961Z,24.7
2022-08-20T03:28:54.427Z,24.8
2022-08-20T03:29:56.903Z,24.6
2022-08-20T03:31:00.294Z,24.7
2022-08-20T03:33:07.784Z,24.8
2022-08-20T03:34:09.442Z,24.7
2022-08-20T03:35:11.605Z,24.7
2022-08-20T03:37:19.076Z,24.7
2022-08-20T03:39:26.546Z,24.6
2022-08-20T03:40:28.749Z,24.7
2022-08-20T03:41:30.940Z,24.6
2022-08-20T03:42:33.146Z,24.7
2022-08-20T03:43:35.683Z,24.7
2022-08-20T03:44:39.637Z,24.6
2022-08-20T03:45:42.122Z,24.7
2022-08-20T03:46:44.322Z,24.8
2022-08-20T03:47:46.782Z,24.6
2022-08-20T03:48:50.459Z,24.7
2022-08-20T03:49:55.938Z,24.6
2022-08-20T03:50:58.414Z,24.7
2022-08-20T03:52:00.878Z,24.6
2022-08-20T03:53:03.351Z,24.5
2022-08-20T03:54:05.818Z,24.6
2022-08-20T03:55:08.311Z,24.6
2022-08-20T03:56:10.774Z,24.6
2022-08-20T03:57:13.588Z,24.7
2022-08-20T03:58:16.075Z,24.7
2022-08-20T03:59:18.288Z,24.6
2022-08-20T04:00:20.755Z,24.7
2022-08-20T04:02:27.971Z,24.6
2022-08-20T04:03:30.458Z,24.6
2022-08-20T04:04:32.923Z,24.6
2022-08-20T04:05:35.399Z,24.5
2022-08-20T04:06:39.218Z,24.6
2022-08-20T04:07:44.410Z,24.6
2022-08-20T04:08:46.623Z,24.6
2022-08-20T04:09:48.810Z,24.6
2022-08-20T04:10:50.765Z,24.6
2022-08-20T04:11:53.264Z,24.5
2022-08-20T04:12:55.826Z,24.5
2022-08-20T04:14:00.329Z,24.6
2022-08-20T04:15:09.560Z,24.6
2022-08-20T04:17:19.468Z,24.6
2022-08-20T04:18:24.320Z,24.5
2022-08-20T04:19:28.326Z,24.5
2022-08-20T04:20:31.988Z,24.6
2022-08-20T04:21:34.199Z,24.6
2022-08-20T04:22:36.394Z,24.6
2022-08-20T04:23:40.135Z,24.5
2022-08-20T04:24:42.605Z,24.6
2022-08-20T04:25:44.532Z,24.7
2022-08-20T04:26:47.887Z,24.6
2022-08-20T04:27:50.533Z,24.6
2022-08-20T04:28:52.858Z,24.6
2022-08-20T04:29:55.333Z,24.6
2022-08-20T04:30:57.236Z,24.6
2022-08-20T04:31:59.712Z,24.6
2022-08-20T04:33:06.234Z,24.5
2022-08-20T04:34:08.705Z,24.7
2022-08-20T04:35:11.187Z,24.6
2022-08-20T04:36:13.680Z,24.6
2022-08-20T04:37:17.900Z,24.5
2022-08-20T04:38:20.391Z,24.6
2022-08-20T04:39:22.858Z,24.6
2022-08-20T04:40:25.346Z,24.5
2022-08-20T04:41:27.823Z,24.6
2022-08-20T04:42:30.310Z,24.6
2022-08-20T04:43:35.246Z,24.6
2022-08-20T04:44:37.723Z,24.6
2022-08-20T04:45:40.210Z,24.6
2022-08-20T04:46:42.688Z,24.5
2022-08-20T04:47:45.165Z,24.5
2022-08-20T04:50:59.195Z,24.6
2022-08-20T04:52:05.048Z,24.4
2022-08-20T04:53:07.243Z,24.6
2022-08-20T04:54:09.724Z,24.6
2022-08-20T04:55:12.186Z,24.6
2022-08-20T04:56:14.400Z,24.5
2022-08-20T04:57:17.395Z,24.4
2022-08-20T04:58:19.871Z,24.6
2022-08-20T04:59:25.348Z,24.4
2022-08-20T05:00:27.554Z,24.5
2022-08-20T05:01:30.032Z,24.5
2022-08-20T05:02:32.478Z,24.4
2022-08-20T05:03:34.670Z,24.4
2022-08-20T05:04:36.862Z,24.5
2022-08-20T05:05:39.099Z,24.5
2022-08-20T05:06:41.585Z,24.4
2022-08-20T05:07:44.048Z,24.5
2022-08-20T05:08:46.258Z,24.5
2022-08-20T05:09:48.735Z,24.5
2022-08-20T05:11:56.202Z,24.5
2022-08-20T05:12:58.695Z,24.5
2022-08-20T05:14:01.172Z,24.4
2022-08-20T05:15:03.425Z,24.4
2022-08-20T05:16:05.916Z,24.4
2022-08-20T05:17:08.394Z,24.5
2022-08-20T05:18:10.882Z,24.5
2022-08-20T05:19:13.125Z,24.4
2022-08-20T05:20:15.590Z,24.4
2022-08-20T05:21:18.077Z,24.4
2022-08-20T05:22:20.268Z,24.4
2022-08-20T05:23:22.444Z,24.4
2022-08-20T05:24:24.908Z,24.4
2022-08-20T05:25:27.389Z,24.6
2022-08-20T05:26:29.584Z,24.4
2022-08-20T05:27:32.067Z,24.4
2022-08-20T05:29:39.527Z,24.5
2022-08-20T05:30:42.000Z,24.4
2022-08-20T05:31:45.073Z,24.4
2022-08-20T05:32:47.284Z,24.5
2022-08-20T05:33:49.488Z,24.5
2022-08-20T05:34:51.984Z,24.4
2022-08-20T05:35:54.446Z,24.3
2022-08-20T05:36:56.649Z,24.3
2022-08-20T05:37:59.266Z,24.4
2022-08-20T05:39:01.746Z,24.5
2022-08-20T05:40:04.331Z,24.4
2022-08-20T05:41:06.471Z,24.4
2022-08-20T05:42:08.131Z,24.4
2022-08-20T05:43:10.331Z,24.3
2022-08-20T05:44:12.246Z,24.5
2022-08-20T05:45:14.975Z,24.4
2022-08-20T05:46:17.448Z,24.3
2022-08-20T05:48:24.647Z,24.4
2022-08-20T05:49:27.131Z,24.4
2022-08-20T05:50:29.601Z,24.5
2022-08-20T05:51:32.073Z,24.3
2022-08-20T05:52:34.350Z,24.4
2022-08-20T05:53:36.848Z,24.4
2022-08-20T05:54:39.329Z,24.4
2022-08-20T05:55:41.809Z,24.4
2022-08-20T05:56:44.278Z,24.4
2022-08-20T05:57:46.758Z,24.4
2022-08-20T05:59:53.963Z,24.3
2022-08-20T06:00:56.587Z,24.5
2022-08-20T06:01:58.981Z,24.4
2022-08-20T06:03:00.909Z,24.4
2022-08-20T06:04:03.110Z,24.4
2022-08-20T06:05:04.769Z,24.4
2022-08-20T06:07:12.474Z,24.5
2022-08-20T06:08:14.822Z,24.5
2022-08-20T06:10:22.373Z,24.5
2022-08-20T06:11:24.913Z,24.6
2022-08-20T06:12:27.390Z,24.5
2022-08-20T06:13:29.609Z,24.4
2022-08-20T06:14:31.903Z,24.4
2022-08-20T06:15:35.828Z,24.4
2022-08-20T06:16:38.299Z,24.4
2022-08-20T06:18:49.804Z,24.4
2022-08-20T06:19:52.289Z,24.5
2022-08-20T06:20:55.005Z,24.5
2022-08-20T06:21:57.656Z,24.4
2022-08-20T06:23:00.002Z,24.4
2022-08-20T06:24:02.569Z,24.4
2022-08-20T06:25:04.995Z,24.3
2022-08-20T06:26:07.512Z,24.4
2022-08-20T06:27:09.980Z,24.4
2022-08-20T06:28:12.456Z,24.5
2022-08-20T06:29:14.629Z,24.4
2022-08-20T06:30:17.110Z,24.5
2022-08-20T06:31:19.602Z,24.4
2022-08-20T06:33:27.064Z,24.4
2022-08-20T06:34:31.377Z,24.3
2022-08-20T06:35:34.025Z,24.4
2022-08-20T06:36:35.944Z,24.4
2022-08-20T06:37:38.416Z,24.4
2022-08-20T06:38:40.904Z,24.4
2022-08-20T06:39:45.106Z,24.5
2022-08-20T06:40:48.009Z,24.4
2022-08-20T06:41:50.503Z,24.4
2022-08-20T06:42:55.987Z,24.4
2022-08-20T06:43:58.461Z,24.3
2022-08-20T06:45:00.988Z,24.4
2022-08-20T06:46:03.215Z,24.4
2022-08-20T06:47:05.415Z,24.5
2022-08-20T06:48:07.908Z,24.4
2022-08-20T06:49:10.381Z,24.4
2022-08-20T06:50:12.568Z,24.3
2022-08-20T06:51:15.068Z,24.4
2022-08-20T06:52:17.698Z,24.4
2022-08-20T06:53:19.982Z,24.4
2022-08-20T06:55:27.238Z,24.4
2022-08-20T06:56:29.817Z,24.4
2022-08-20T06:57:32.026Z,24.4
2022-08-20T06:59:39.238Z,24.4
2022-08-20T07:00:41.802Z,24.2
2022-08-20T07:01:44.099Z,24.5
2022-08-20T07:02:46.498Z,24.3
2022-08-20T07:04:53.420Z,24.3
2022-08-20T07:05:55.616Z,24.4
2022-08-20T07:06:58.112Z,24.4
2022-08-20T07:08:00.312Z,24.2
2022-08-20T07:09:01.939Z,24.4
2022-08-20T07:10:04.428Z,24.5
2022-08-20T07:11:06.898Z,24.3
2022-08-20T07:12:09.377Z,24.3
2022-08-20T07:13:12.194Z,24.3
2022-08-20T07:14:14.663Z,24.5
2022-08-20T07:15:17.134Z,24.3
2022-08-20T07:16:19.648Z,24.2
2022-08-20T07:18:29.141Z,24.4
2022-08-20T07:19:31.698Z,24.3
2022-08-20T07:20:33.883Z,24.4
2022-08-20T07:21:36.363Z,24.4
2022-08-20T07:22:38.826Z,24.4
2022-08-20T07:23:40.738Z,24.4
2022-08-20T07:25:48.221Z,24.4
2022-08-20T07:26:50.428Z,24.4
2022-08-20T07:27:57.726Z,24.4
2022-08-20T07:28:59.943Z,24.4
2022-08-20T07:30:02.143Z,24.3
2022-08-20T07:32:10.261Z,24.4
2022-08-20T07:33:12.750Z,24.4
2022-08-20T07:34:17.036Z,24.3
2022-08-20T07:35:22.518Z,24.4
2022-08-20T07:36:24.998Z,24.5
2022-08-20T07:37:26.646Z,24.4
2022-08-20T07:38:29.155Z,24.4
2022-08-20T07:39:32.712Z,24.3
2022-08-20T07:40:35.369Z,24.4
2022-08-20T07:41:37.576Z,24.4
2022-08-20T07:42:40.057Z,24.4
2022-08-20T07:43:42.526Z,24.5
2022-08-20T07:44:45.006Z,24.3
2022-08-20T07:46:52.488Z,24.3
2022-08-20T07:47:54.743Z,24.4
2022-08-20T07:48:57.237Z,24.3
2022-08-20T07:49:59.725Z,24.4
2022-08-20T07:51:01.945Z,24.4
2022-08-20T07:52:04.423Z,24.4
2022-08-20T07:53:09.904Z,24.3
2022-08-20T07:54:12.403Z,24.4
2022-08-20T07:55:14.873Z,24.4
2022-08-20T07:56:17.094Z,24.4
2022-08-20T07:57:19.294Z,24.4
2022-08-20T07:59:26.849Z,24.4
2022-08-20T08:00:29.030Z,24.3
2022-08-20T08:01:31.669Z,24.4
2022-08-20T08:02:33.850Z,24.4
2022-08-20T08:04:41.336Z,24.4
2022-08-20T08:05:43.272Z,24.4
2022-08-20T08:06:45.742Z,24.3
2022-08-20T08:07:48.327Z,24.3
2022-08-20T08:08:50.795Z,24.3
2022-08-20T08:09:53.489Z,24.4
2022-08-20T08:10:55.971Z,24.3
2022-08-20T08:11:58.458Z,24.3
2022-08-20T08:13:00.672Z,24.3
2022-08-20T08:14:03.165Z,24.3
2022-08-20T08:15:05.635Z,24.3
2022-08-20T08:16:07.826Z,24.3
2022-08-20T08:17:10.314Z,24.3
2022-08-20T08:18:12.529Z,24.4
2022-08-20T08:19:17.243Z,24.4
2022-08-20T08:20:19.435Z,24.3
2022-08-20T08:21:21.539Z,24.3
2022-08-20T08:22:23.753Z,24.4
2022-08-20T08:24:30.644Z,24.3
2022-08-20T08:25:33.128Z,24.3
2022-08-20T08:26:35.595Z,24.4
2022-08-20T08:27:37.814Z,24.4
2022-08-20T08:28:40.016Z,24.4
2022-08-20T08:29:42.496Z,24.4
2022-08-20T08:30:44.699Z,24.3
2022-08-20T08:31:46.554Z,24.3
2022-08-20T08:32:48.696Z,24.3
2022-08-20T08:33:51.350Z,24.4
2022-08-20T08:34:53.543Z,24.3
2022-08-20T08:35:56.019Z,24.4
2022-08-20T08:36:58.218Z,24.4
2022-08-20T08:38:00.136Z,24.3
2022-08-20T08:39:02.603Z,24.3
2022-08-20T08:40:04.958Z,24.4
2022-08-20T08:41:07.423Z,24.5
2022-08-20T08:44:19.899Z,24.3
2022-08-20T08:45:22.109Z,24.2
2022-08-20T08:46:24.286Z,24.3
2022-08-20T08:47:26.214Z,24.3
2022-08-20T08:48:28.443Z,24.3
2022-08-20T08:51:40.942Z,24.2
2022-08-20T08:52:43.443Z,24.2
2022-08-20T08:53:45.914Z,24.4
2022-08-20T08:54:48.116Z,24.3
2022-08-20T08:55:50.080Z,24.4
2022-08-20T08:56:52.569Z,24.3
2022-08-20T08:57:54.747Z,24.3
2022-08-20T08:58:57.230Z,24.4
2022-08-20T09:02:09.277Z,24.3
2022-08-20T09:03:11.761Z,24.2
2022-08-20T09:04:14.237Z,24.4
2022-08-20T09:05:16.451Z,24.4
2022-08-20T09:06:18.645Z,24.3
2022-08-20T09:07:21.153Z,24.3
2022-08-20T09:08:23.625Z,24.3
2022-08-20T09:09:25.545Z,24.3
2022-08-20T09:10:27.729Z,24.3
2022-08-20T09:11:30.210Z,24.2
2022-08-20T09:12:32.678Z,24.3
2022-08-20T09:13:34.895Z,24.3
2022-08-20T09:14:37.392Z,24.3
2022-08-20T09:15:39.887Z,24.2
2022-08-20T09:17:47.387Z,24.3
2022-08-20T09:18:49.599Z,24.4
2022-08-20T09:19:51.810Z,24.2
2022-08-20T09:20:54.476Z,24.3
2022-08-20T09:21:56.943Z,24.3
2022-08-20T09:22:59.373Z,24.3
2022-08-20T09:24:01.942Z,24.3
2022-08-20T09:25:04.420Z,24.4
2022-08-20T09:26:06.595Z,24.2
2022-08-20T09:27:08.227Z,24.2
2022-08-20T09:28:12.852Z,24.4
2022-08-20T09:29:17.819Z,24.4
2022-08-20T09:30:20.876Z,24.4
2022-08-20T09:31:24.792Z,24.4
2022-08-20T09:32:28.256Z,24.4
2022-08-20T09:33:30.770Z,24.4
2022-08-20T09:34:32.710Z,24.1
2022-08-20T09:35:34.926Z,24.4
2022-08-20T09:36:37.440Z,24.3
2022-08-20T09:37:39.354Z,24.4
2022-08-20T09:38:41.858Z,24.4
2022-08-20T09:39:44.457Z,24.2
2022-08-20T09:40:47.095Z,24.3
2022-08-20T09:41:49.418Z,24.3
2022-08-20T09:42:52.150Z,24.3
2022-08-20T09:43:55.039Z,24.3
2022-08-20T09:44:57.901Z,24.3
2022-08-20T09:45:59.881Z,24.4
2022-08-20T09:47:02.424Z,24.3
2022-08-20T09:49:11.143Z,24.2
2022-08-20T09:50:13.354Z,24.3
2022-08-20T09:51:15.440Z,24.3
2022-08-20T09:52:17.959Z,24.3
2022-08-20T09:53:20.145Z,24.3
2022-08-20T09:54:22.655Z,24.4
2022-08-20T09:55:26.216Z,24.3
2022-08-20T09:56:29.171Z,24.3
2022-08-20T09:57:31.724Z,24.3
2022-08-20T09:58:34.434Z,24.3
2022-08-20T09:59:37.266Z,24.2
2022-08-20T10:00:39.989Z,24.3
2022-08-20T10:01:42.787Z,24.3
2022-08-20T10:02:45.615Z,24.4
2022-08-20T10:03:48.170Z,24.2
2022-08-20T10:04:51.934Z,24.2
2022-08-20T10:05:54.652Z,24.3
2022-08-20T10:06:56.870Z,24.2
2022-08-20T10:07:59.411Z,24.2
2022-08-20T10:09:01.668Z,24.3
2022-08-20T10:10:03.871Z,24.2
2022-08-20T10:11:06.357Z,24.3
2022-08-20T10:12:08.834Z,24.2
2022-08-20T10:14:16.309Z,24.1
2022-08-20T10:15:18.270Z,24.3
2022-08-20T10:16:20.747Z,24.3
2022-08-20T10:17:23.221Z,24.3
2022-08-20T10:18:25.171Z,24.3
2022-08-20T10:19:27.422Z,24.3
2022-08-20T10:20:29.628Z,24.3
2022-08-20T10:22:37.129Z,24.2
2022-08-20T10:23:39.615Z,24.3
2022-08-20T10:24:41.818Z,24.3
2022-08-20T10:25:44.030Z,24.3
2022-08-20T10:26:46.217Z,24.2
2022-08-20T10:27:48.701Z,24.3
2022-08-20T10:28:50.945Z,24.2
2022-08-20T10:29:53.687Z,24.3
2022-08-20T10:30:56.148Z,24.2
2022-08-20T10:31:58.070Z,24.2
2022-08-20T10:33:00.261Z,24.3
2022-08-20T10:34:02.784Z,24.2
2022-08-20T10:35:05.276Z,24.2
2022-08-20T10:36:07.554Z,24.4
2022-08-20T10:37:10.026Z,24.3
2022-08-20T10:38:12.216Z,24.2
2022-08-20T10:39:14.690Z,24.2
2022-08-20T10:40:17.346Z,24.3
2022-08-20T10:41:20.342Z,24.3
2022-08-20T10:42:22.563Z,24.3
2022-08-20T10:43:25.055Z,24.3
2022-08-20T10:44:26.999Z,24.3
2022-08-20T10:45:29.202Z,24.3
2022-08-20T10:46:31.705Z,24.3
2022-08-20T10:47:33.888Z,24.3
2022-08-20T10:48:36.107Z,24.2
2022-08-20T10:49:38.006Z,24.3
2022-08-20T10:50:40.486Z,24.4
2022-08-20T10:51:42.678Z,24.3
2022-08-20T10:52:45.178Z,24.3
2022-08-20T10:53:47.647Z,24.3
2022-08-20T10:54:49.852Z,24.3
2022-08-20T10:55:52.046Z,24.2
2022-08-20T10:56:54.530Z,24.4
2022-08-20T10:57:57.488Z,24.2
2022-08-20T10:59:00.277Z,24.3
2022-08-20T11:00:03.317Z,24.3
2022-08-20T11:01:05.506Z,24.4
2022-08-20T11:02:07.663Z,24.2
2022-08-20T11:03:10.201Z,24.3
2022-08-20T11:04:12.669Z,24.2
2022-08-20T11:05:14.890Z,24.3
2022-08-20T11:06:17.099Z,24.3
2022-08-20T11:07:19.581Z,24.4
2022-08-20T11:09:31.520Z,24.3
2022-08-20T11:10:34.006Z,24.4
2022-08-20T11:11:36.202Z,24.4
2022-08-20T11:12:38.856Z,24.2
2022-08-20T11:13:44.593Z,24.2
2022-08-20T11:14:47.120Z,24.2
2022-08-20T11:15:49.611Z,24.1
2022-08-20T11:16:51.802Z,24.3
2022-08-20T11:17:53.998Z,24.3
2022-08-20T11:18:56.698Z,24.2
2022-08-20T11:19:59.170Z,24.2
2022-08-20T11:21:01.399Z,24.3
2022-08-20T11:22:03.879Z,24.3
2022-08-20T11:23:06.362Z,24.3
2022-08-20T11:24:08.304Z,24.2
2022-08-20T11:25:10.791Z,24.2
2022-08-20T11:26:13.030Z,24.2
2022-08-20T11:27:15.510Z,24.3
2022-08-20T11:29:22.980Z,24.3
2022-08-20T11:30:25.460Z,24.2
2022-08-20T11:31:27.645Z,24.2
2022-08-20T11:32:29.852Z,24.2
2022-08-20T11:33:32.044Z,24.2
2022-08-20T11:34:34.605Z,24.3
2022-08-20T11:36:42.102Z,24.3
2022-08-20T11:37:44.424Z,24.3
2022-08-20T11:38:46.630Z,24.2
2022-08-20T11:39:49.491Z,24.3
2022-08-20T11:40:51.974Z,24.4
2022-08-20T11:41:55.716Z,24.2
2022-08-20T11:45:07.909Z,24.2
2022-08-20T11:46:12.773Z,24.2
2022-08-20T11:47:14.971Z,24.3
2022-08-20T11:48:17.480Z,24.2
2022-08-20T11:49:20.149Z,24.3
2022-08-20T11:50:22.630Z,24.2
2022-08-20T11:51:24.810Z,24.1
2022-08-20T11:53:33.535Z,24.3
2022-08-20T11:54:40.189Z,24.3
2022-08-20T11:55:43.112Z,24.2
2022-08-20T11:56:46.597Z,24.3
2022-08-20T11:57:48.257Z,24.3
2022-08-20T11:58:50.467Z,24.3
2022-08-20T11:59:52.378Z,24.1
2022-08-20T12:00:54.598Z,24.3
2022-08-20T12:03:02.489Z,24.1
2022-08-20T12:04:05.316Z,24.4
2022-08-20T12:05:07.794Z,24.2
2022-08-20T12:06:10.306Z,24.2
2022-08-20T12:07:12.491Z,24.2
2022-08-20T12:10:24.991Z,24.3
2022-08-20T12:11:27.483Z,24.3
2022-08-20T12:12:29.981Z,24.3
2022-08-20T12:14:37.200Z,24.3
2022-08-20T12:15:39.689Z,24.2
2022-08-20T12:16:41.896Z,24.2
2022-08-20T12:17:44.407Z,24.2
2022-08-20T12:18:46.875Z,24.3
2022-08-20T12:19:49.387Z,24.2
2022-08-20T12:20:51.584Z,24.2
2022-08-20T12:21:54.076Z,24.2
2022-08-20T12:22:56.633Z,24.2
2022-08-20T12:23:59.905Z,24.1
2022-08-20T12:25:01.555Z,24.2
2022-08-20T12:26:03.186Z,24.3
2022-08-20T12:27:05.963Z,24.2
2022-08-20T12:28:08.898Z,24.4
2022-08-20T12:29:11.379Z,24.1
2022-08-20T12:30:13.872Z,24.3
2022-08-20T12:31:16.046Z,24.3
2022-08-20T12:32:18.557Z,24.2
2022-08-20T12:33:21.059Z,24.2
2022-08-20T12:34:23.261Z,24.2
2022-08-20T12:35:25.447Z,24.1
2022-08-20T12:36:28.180Z,24.2
2022-08-20T12:37:30.115Z,24.3
2022-08-20T12:38:31.784Z,24.2
2022-08-20T12:39:34.324Z,24.1
2022-08-20T12:40:37.004Z,24.2
2022-08-20T12:41:38.935Z,24.3
2022-08-20T12:42:42.703Z,24.2
2022-08-20T12:43:44.882Z,24.2
2022-08-20T12:44:47.380Z,24.3
2022-08-20T12:45:49.853Z,24.3
2022-08-20T12:46:52.331Z,24.2
2022-08-20T12:47:54.545Z,24.2
2022-08-20T12:48:56.758Z,24.1
2022-08-20T12:49:59.030Z,24.2
2022-08-20T12:51:01.235Z,24.4
2022-08-20T12:52:03.713Z,24.2
2022-08-20T12:53:06.215Z,24.3
2022-08-20T12:54:08.446Z,24.3
2022-08-20T12:55:10.874Z,24.2
2022-08-20T12:56:13.072Z,24.2
2022-08-20T12:57:15.546Z,24.1
2022-08-20T12:58:19.935Z,24.2
2022-08-20T13:00:27.588Z,24.3
2022-08-20T13:01:32.919Z,24.2
2022-08-20T13:02:35.629Z,24.2
2022-08-20T13:04:43.418Z,24.2
2022-08-20T13:05:46.084Z,24.2
2022-08-20T13:06:48.413Z,24.2
2022-08-20T13:07:50.898Z,24.2
2022-08-20T13:08:52.831Z,24.2
2022-08-20T13:09:55.322Z,24.2
2022-08-20T13:10:56.968Z,24.2
2022-08-20T13:11:59.458Z,24.2
2022-08-20T13:13:04.935Z,24.2
2022-08-20T13:14:07.424Z,24.2
2022-08-20T13:15:09.637Z,24.3
2022-08-20T13:16:12.351Z,24.2
2022-08-20T13:17:16.469Z,24.3
2022-08-20T13:18:24.937Z,24.3
2022-08-20T13:19:27.416Z,24.1
2022-08-20T13:21:34.340Z,24.2
2022-08-20T13:22:36.607Z,24.3
2022-08-20T13:23:38.791Z,24.3
2022-08-20T13:24:41.294Z,24.2
2022-08-20T13:25:43.475Z,24.2
2022-08-20T13:26:45.684Z,24.3
2022-08-20T13:27:47.704Z,24.1
2022-08-20T13:28:49.982Z,24.2
2022-08-20T13:30:57.178Z,24.3
2022-08-20T13:31:59.391Z,24.2
2022-08-20T13:33:01.594Z,24.2
2022-08-20T13:34:03.806Z,24.2
2022-08-20T13:35:05.733Z,24.2
2022-08-20T13:36:07.649Z,24.2
2022-08-20T13:37:10.397Z,24.2
2022-08-20T13:38:13.227Z,24.1
2022-08-20T13:39:15.705Z,24.2
2022-08-20T13:40:18.448Z,24.2
2022-08-20T13:41:21.034Z,24.2
2022-08-20T13:42:23.338Z,24.2
2022-08-20T13:43:25.288Z,24.3
2022-08-20T13:45:32.776Z,24.1
2022-08-20T13:46:35.265Z,24.2
2022-08-20T13:47:37.468Z,24.2
2022-08-20T13:48:39.954Z,24.2
2022-08-20T13:49:42.234Z,24.2
2022-08-20T13:52:54.613Z,24.2
2022-08-20T13:53:59.453Z,24.2
2022-08-20T13:55:06.502Z,24.3
2022-08-20T13:56:09.092Z,24.2
2022-08-20T14:00:12.523Z,24.2
2022-08-20T14:01:15.164Z,24.2
2022-08-20T14:02:18.134Z,24.3
2022-08-20T14:04:25.344Z,24.3
2022-08-20T14:05:27.833Z,24.2
2022-08-20T14:06:30.307Z,24.2
2022-08-20T14:07:33.468Z,24.2
2022-08-20T14:08:35.942Z,24.2
2022-08-20T14:09:37.664Z,24.3
2022-08-20T14:11:44.865Z,24.2
2022-08-20T14:12:48.230Z,24.2
2022-08-20T14:13:50.929Z,24.2
2022-08-20T14:14:53.411Z,24.2
2022-08-20T14:15:55.653Z,24.3
2022-08-20T14:16:58.054Z,24.2
2022-08-20T14:18:02.486Z,24.2
2022-08-20T14:19:04.757Z,24.1
2022-08-20T14:20:07.222Z,24.2
2022-08-20T14:21:11.782Z,24.2
2022-08-20T14:22:14.313Z,24.3
2022-08-20T14:23:16.245Z,24.1
2022-08-20T14:24:18.176Z,24.3
2022-08-20T14:25:20.396Z,24.2
2022-08-20T14:26:22.878Z,24.2
2022-08-20T14:28:30.403Z,24.3
2022-08-20T14:30:37.622Z,24.3
2022-08-20T14:31:39.556Z,24.1
2022-08-20T14:32:42.030Z,24.2
2022-08-20T14:33:45.390Z,24.3
2022-08-20T14:34:47.869Z,24.3
2022-08-20T14:35:49.782Z,24.2
2022-08-20T14:36:51.982Z,24.3
2022-08-20T14:37:54.465Z,24.3
2022-08-20T14:38:56.660Z,24.3
2022-08-20T14:39:59.289Z,24.3
2022-08-20T14:41:02.112Z,24.2
2022-08-20T14:42:04.602Z,24.2
2022-08-20T14:43:06.521Z,24.2
2022-08-20T14:44:09.001Z,24.1
2022-08-20T14:45:11.206Z,24.1
2022-08-20T14:46:13.699Z,24.2
2022-08-20T14:47:16.185Z,24.2
2022-08-20T14:48:18.402Z,24.3
2022-08-20T14:49:20.608Z,24.2
2022-08-20T14:50:22.823Z,24.2
2022-08-20T14:51:25.026Z,24.2
2022-08-20T14:52:28.907Z,24.2
2022-08-20T14:53:31.115Z,24.3
2022-08-20T14:54:33.592Z,24.2
2022-08-20T14:55:35.517Z,24.2
2022-08-20T14:56:37.990Z,24.3
2022-08-20T14:57:40.189Z,24.2
2022-08-20T14:58:42.109Z,24.2
2022-08-20T14:59:44.630Z,24.3
2022-08-20T15:00:47.257Z,24.2
2022-08-20T15:01:49.981Z,24.2
2022-08-20T15:02:51.921Z,24.3
2022-08-20T15:03:54.195Z,24.2
2022-08-20T15:04:56.542Z,24.2
2022-08-20T15:05:58.754Z,24.2
2022-08-20T15:08:07.032Z,24.2
2022-08-20T15:09:11.856Z,24.1
2022-08-20T15:10:14.057Z,24.2
2022-08-20T15:11:18.381Z,24.3
2022-08-20T15:12:20.580Z,24.2
2022-08-20T15:13:22.799Z,24.2
2022-08-20T15:15:30.314Z,24.2
2022-08-20T15:16:32.804Z,24.3
2022-08-20T15:17:35.000Z,24.2
2022-08-20T15:18:37.199Z,24.3
2022-08-20T15:19:39.680Z,24.1